Sweeney Granite Mountains, California Weather observations

Data are for 10 minute period ending at time listed.
 Day   Time   Solar   Ave.   Ave.  Ave.  Vector  Max.   Baro.   Total    
  of    of     Rad.   Air    Rel.  Wind   Wind   Wind  Press.  Precip.   
Year   Day            Temp.  Hum.  Speed  Dir.   Gust                    
2015   (PST)  Kw/m2    F      %     mph   deg.    mph    mb.     in.     
-------------------------------------------------------------------------
 114    0:00   0.00   53.3    52    7.4   317    12.3   863.3    0.00 
 114    0:10   0.00   53.3    52    7.7   314    11.0   863.2    0.00 
 114    0:20   0.00   53.2    52    8.5   308    12.6   863.0    0.00 
 114    0:30   0.00   53.1    52    6.6   308    11.2   862.9    0.00 
 114    0:40   0.00   52.9    52    6.6   310    10.1   862.9    0.00 
 114    0:50   0.00   53.2    51    6.8   304    10.2   862.8    0.00 
 114    1:00   0.00   52.1    53    5.5   295     8.7   862.7    0.00 
 114    1:10   0.00   52.2    54    6.4   269    10.9   862.8    0.00 
 114    1:20   0.00   52.6    53    5.7   254     8.6   862.8    0.00 
 114    1:30   0.00   52.6    53    5.6   262     7.7   862.9    0.00 
 114    1:40   0.00   51.9    56    6.5   283    10.7   862.9    0.00 
 114    1:50   0.00   51.7    56    6.3   300     9.1   862.9    0.00 
 114    2:00   0.00   52.5    53    7.2   315    10.7   862.9    0.00 
 114    2:10   0.00   52.5    55    9.7   319    15.6   863.0    0.00 
 114    2:20   0.00   52.1    57   11.4   313    15.9   863.0    0.00 
 114    2:30   0.00   52.3    55    7.1   312    11.0   863.0    0.00 
 114    2:40   0.00   51.9    56    5.1   297     7.5   863.0    0.00 
 114    2:50   0.00   51.2    56    4.4   279     6.1   863.1    0.00 
 114    3:00   0.00   50.7    59    6.7   299     9.9   863.2    0.00 
 114    3:10   0.00   50.9    60    7.6   304    10.7   863.2    0.00 
 114    3:20   0.00   51.1    61    8.4   309    12.5   863.2    0.00 
 114    3:30   0.00   50.9    61    7.6   306    11.4   863.2    0.00 
 114    3:40   0.00   50.7    61    6.6   306    11.3   863.2    0.00 
 114    3:50   0.00   50.5    62    7.0   294     9.9   863.2    0.00 
 114    4:00   0.00   50.8    62    7.1   285    11.7   863.1    0.00 
 114    4:10   0.00   50.8    63    7.7   265    12.1   863.2    0.00 
 114    4:20   0.00   50.3    64    6.0   276     9.6   863.3    0.00 
 114    4:30   0.00   49.7    65    5.9   278     8.4   863.3    0.00 
 114    4:40   0.00   49.5    65    4.7   278     6.6   863.4    0.00 
 114    4:50   0.00   49.3    65    3.1   278     4.5   863.4    0.00 
 114    5:00   0.00   49.6    64    3.0   200     5.9   863.4    0.00 
 114    5:10   0.00   50.6    61    3.5   252     6.8   863.5    0.00 
 114    5:20   0.01   48.5    65    4.8   300     6.4   863.4    0.00 
 114    5:30   0.02   49.9    63    4.3   214     7.2   863.5    0.00 
 114    5:40   0.04   51.0    62    1.7   124     4.5   863.7    0.00 
 114    5:50   0.08   52.2    59    1.5   229     3.9   863.9    0.00 
 114    6:00   0.11   53.3    59    2.1   161     3.8   864.1    0.00 
 114    6:10   0.14   53.9    58    1.7   108     3.4   864.2    0.00 
 114    6:20   0.18   55.0    56    1.0   109     2.7   864.2    0.00 
 114    6:30   0.21   55.1    56    2.6   117     5.8   864.2    0.00 
 114    6:40   0.25   54.7    57    2.2   113     5.0   864.3    0.00 
 114    6:50   0.29   55.0    57    3.2   105     6.5   864.4    0.00 
 114    7:00   0.33   55.9    56    3.7    87    10.5   864.5    0.00 
 114    7:10   0.36   56.7    55    3.3   262     9.3   864.7    0.00 
 114    7:20   0.41   57.3    53    5.1   244    10.4   864.9    0.00 
 114    7:30   0.43   56.5    55    6.5   268    14.3   865.0    0.00 
 114    7:40   0.48   57.2    53    5.9   274    11.0   865.0    0.00 
 114    7:50   0.51   58.1    51    5.5   277    11.5   865.2    0.00 
 114    8:00   0.56   58.7    50    5.9   267    12.2   865.3    0.00 
 114    8:10   0.57   58.3    51    5.6   249    13.0   865.5    0.00 
 114    8:20   0.63   58.3    51    6.2   241    11.5   865.5    0.00 
 114    8:30   0.62   58.4    51    5.4   256    11.9   865.7    0.00 
 114    8:40   0.69   57.9    51    7.7   280    12.3   865.7    0.00 
 114    8:50   0.72   58.9    49    6.8   268    12.1   865.8    0.00 
 114    9:00   0.67   59.1    49    7.3   262    13.4   865.9    0.00 
 114    9:10   0.77   57.8    51    8.2   229    16.0   866.0    0.00 
 114    9:20   0.80   59.1    48    7.0   272    14.1   866.1    0.00 
 114    9:30   0.90   59.7    47    6.3   249    15.0   866.1    0.00 
 114    9:40   0.91   60.5    46    8.0   257    17.4   866.1    0.00 
 114    9:50   0.92   59.7    48    8.3   248    15.4   866.2    0.00 
 114   10:00   0.92   59.4    48    8.9   236    22.1   866.1    0.00 
 114   10:10   0.84   60.1    47    9.7   231    19.9   866.1    0.00 
 114   10:20   0.97   60.5    46    8.9   260    19.6   866.1    0.00 
 114   10:30   0.34   58.3    49    8.9   221    18.4   866.2    0.00 
 114   10:40   0.34   58.1    49    6.7   242    16.9   866.2    0.00 
 114   10:50   0.30   57.8    48    8.3   216    21.0   866.1    0.00 
 114   11:00   0.56   58.8    46    8.6   226    18.3   866.1    0.00 
 114   11:10   0.47   60.1    44    7.3   250    14.7   866.1    0.00 
 114   11:20   0.37   58.9    46    8.3   226    15.7   866.1    0.00 
 114   11:30   1.00   61.8    41    5.8   212    13.7   866.0    0.00 
 114   11:40   0.51   60.6    43    8.6   234    24.0   865.9    0.00 
 114   11:50   0.24   59.7    44    7.1   217    15.6   865.8    0.00 
 114   12:00   0.25   59.5    44    6.4   230    14.0   865.9    0.00 
 114   12:10   0.65   60.6    42    5.0   222    14.7   865.7    0.00 
 114   12:20   0.64   62.7    39    5.0   199    14.8   865.6    0.00 
 114   12:30   0.26   61.7    40    4.1   192    12.9   865.6    0.00 
 114   12:40   0.24   61.5    40    5.0   241    13.1   865.6    0.00 
 114   12:50   0.77   61.6    39    6.1   224    14.0   865.6    0.00 
 114   13:00   0.27   62.5    37    5.0   209    14.7   865.5    0.00 
 114   13:10   0.28   61.1    40    6.2   224    12.0   865.5    0.00 
 114   13:20   0.20   61.1    40    5.2   236    14.7   865.5    0.00 
 114   13:30   0.21   60.9    41    6.0   234    15.1   865.4    0.00 
 114   13:40   0.50   60.9    42    6.1   220    16.1   865.4    0.00 
 114   13:50   0.38   62.1    41    4.6   200    11.5   865.2    0.00 
 114   14:00   0.20   60.8    42    6.7   230    12.6   865.1    0.00 
 114   14:10   0.39   61.6    40    3.3   199     7.2   865.0    0.00 
 114   14:20   0.29   62.6    37    3.1   218    10.4   864.9    0.00 
 114   14:30   0.37   62.2    37    3.2   182     9.6   864.8    0.00 
 114   14:40   0.22   62.7    36    6.1   215    15.6   864.7    0.00 
 114   14:50   0.14   61.8    37    6.4   231    13.4   864.5    0.00 
 114   15:00   0.27   62.9    34    3.3   218     9.9   864.4    0.00 
 114   15:10   0.38   64.1    33    5.8   251    12.3   864.4    0.00 
 114   15:20   0.50   64.5    32    7.1   243    14.7   864.4    0.00 
 114   15:30   0.30   64.2    30    5.9   261    13.2   864.3    0.00 
 114   15:40   0.62   66.0    27    7.9   269    17.2   864.3    0.00 
 114   15:50   0.58   66.1    26    9.9   274    17.9   864.3    0.00 
 114   16:00   0.49   66.3    25    7.7   275    14.4   864.3    0.00 
 114   16:10   0.43   66.0    25    8.1   272    16.1   864.3    0.00 
 114   16:20   0.21   65.0    27   10.7   276    16.7   864.3    0.00 
 114   16:30   0.06   62.9    29   10.1   286    19.8   864.3    0.00 
 114   16:40   0.15   62.9    30    9.8   271    18.3   864.3    0.00 
 114   16:50   0.06   62.5    31   12.7   286    18.9   864.1    0.00 
 114   17:00   0.15   62.9    31   10.5   283    15.7   864.1    0.00 
 114   17:10   0.05   61.8    33   11.4   284    18.7   864.2    0.00 
 114   17:20   0.05   61.4    34   10.8   270    18.2   864.2    0.00 
 114   17:30   0.07   61.5    34   11.0   286    18.6   864.1    0.00 
 114   17:40   0.04   61.0    34   10.9   270    17.9   864.2    0.00 
 114   17:50   0.02   60.3    33   12.7   275    23.1   864.2    0.00 
 114   18:00   0.01   59.7    35   11.0   276    18.6   864.2    0.00 
 114   18:10   0.01   59.1    37   15.2   276    21.5   864.2    0.00 
 114   18:20   0.00   58.4    38   13.4   280    18.7   864.3    0.00 
 114   18:30   0.00   57.6    40   10.1   282    15.6   864.3    0.00 
 114   18:40   0.00   57.0    41   12.3   290    21.9   864.3    0.00 
 114   18:50   0.00   56.0    42   17.6   289    28.2   864.2    0.00 
 114   19:00   0.00   55.3    43   20.7   288    29.7   864.2    0.00 
 114   19:10   0.00   54.8    44   15.3   294    22.9   864.4    0.00 
 114   19:20   0.00   54.6    44    9.3   313    17.6   864.6    0.00 
 114   19:30   0.00   54.5    44    6.6   290    14.3   864.5    0.00 
 114   19:40   0.00   54.0    45    7.7   280    12.6   864.4    0.00 
 114   19:50   0.00   53.6    45    8.2   283    16.1   864.4    0.00 
 114   20:00   0.00   53.6    45   15.5   280    22.6   864.1    0.00 
 114   20:10   0.00   53.8    45   10.6   298    18.5   864.3    0.00 
 114   20:20   0.00   53.9    45    8.3   340    15.1   864.6    0.00 
 114   20:30   0.00   53.8    45    5.8    33    12.0   864.7    0.00 
 114   20:40   0.00   53.7    45    6.5   281    12.3   864.8    0.00 
 114   20:50   0.00   53.3    45    8.8   291    15.6   864.8    0.00 
 114   21:00   0.00   53.0    46    4.3   286    14.4   864.8    0.00 
 114   21:10   0.00   52.8    46    4.0   283    16.6   864.8    0.00 
 114   21:20   0.00   52.6    46   11.8   278    21.5   864.6    0.00 
 114   21:30   0.00   52.3    46   11.9   289    21.5   864.5    0.00 
 114   21:40   0.00   52.1    45   13.7   291    24.2   864.5    0.00 
 114   21:50   0.00   51.9    45    8.5   296    15.6   864.7    0.00 
 114   22:00   0.00   51.9    44    7.8   296    18.0   864.5    0.00 

Return to Sweeney Granite Mountains graphs page.


Western Regional Climate Center,wrcc@dri.edu